Time,TemperatureF,DewpointF,PressureIn,WindDirection,WindDirectionDegrees,WindSpeedMPH,WindSpeedGustMPH,Humidity,HourlyPrecipIn,Conditions,Clouds,dailyrainin,SolarRadiationWatts/m^2,SoftwareType,DateUTC
2013-01-26 00:20:00,36.0,35.0,30.05,NNW,328,1.0,5.0,96,-99.99,,,-99.99,0.000000,,2013-01-26 08:20:00,
2013-01-26 00:21:00,36.0,35.0,30.06,WNW,286,3.0,9.0,97,-99.99,,,-99.99,0.000000,,2013-01-26 08:21:00,
2013-01-26 00:31:00,36.0,35.0,30.06,WNW,286,3.0,9.0,97,-99.99,,,-99.99,0.000000,,2013-01-26 08:31:00,
2013-01-26 01:00:00,36.0,35.0,30.04,NNW,327,3.0,10.0,97,-99.99,,,-99.99,0.000000,,2013-01-26 09:00:00,
2013-01-26 01:02:00,36.0,35.0,30.05,NNW,328,1.0,5.0,96,-99.99,,,-99.99,0.000000,,2013-01-26 09:02:00,
2013-01-26 01:11:00,36.0,35.0,30.05,NNW,328,1.0,5.0,96,-99.99,,,-99.99,0.000000,,2013-01-26 09:11:00,
2013-01-26 01:40:00,36.0,35.0,30.03,NNW,341,1.0,5.0,98,-99.99,,,-99.99,0.000000,,2013-01-26 09:40:00,
2013-01-26 01:42:00,36.0,35.0,30.04,NNW,327,3.0,10.0,97,-99.99,,,-99.99,0.000000,,2013-01-26 09:42:00,
2013-01-26 01:51:00,36.0,35.0,30.04,NNW,327,3.0,10.0,97,-99.99,,,-99.99,0.000000,,2013-01-26 09:51:00,
2013-01-26 02:20:00,36.0,35.0,30.02,NW,324,2.0,8.0,98,-99.99,,,-99.99,0.000000,,2013-01-26 10:20:00,
2013-01-26 02:21:00,36.0,35.0,30.03,NNW,341,1.0,5.0,98,-99.99,,,-99.99,0.000000,,2013-01-26 10:21:00,
2013-01-26 02:31:00,36.0,35.0,30.03,NNW,341,1.0,5.0,98,-99.99,,,-99.99,0.000000,,2013-01-26 10:31:00,
2013-01-26 03:00:00,36.0,35.0,30.00,NW,306,4.0,14.0,98,-99.99,,,-99.99,0.000000,,2013-01-26 11:00:00,
2013-01-26 03:12:00,36.0,35.0,30.02,NW,324,2.0,8.0,98,-99.99,,,-99.99,0.000000,,2013-01-26 11:12:00,
2013-01-26 03:40:00,35.0,35.0,29.99,NNW,328,3.0,10.0,98,-99.99,,,-99.99,0.000000,,2013-01-26 11:40:00,
2013-01-26 03:42:00,36.0,35.0,30.00,NW,306,4.0,14.0,98,-99.99,,,-99.99,0.000000,,2013-01-26 11:42:00,
2013-01-26 03:52:00,36.0,35.0,30.00,NW,306,4.0,14.0,98,-99.99,,,-99.99,0.000000,,2013-01-26 11:52:00,
2013-01-26 04:20:00,36.0,35.0,29.98,NW,323,3.0,12.0,97,-99.99,,,-99.99,0.000000,,2013-01-26 12:20:00,
2013-01-26 04:33:00,35.0,35.0,29.99,NNW,328,3.0,10.0,98,-99.99,,,-99.99,0.000000,,2013-01-26 12:33:00,
2013-01-26 05:00:00,35.0,34.0,29.98,NNW,331,2.0,11.0,97,-99.99,,,-99.99,0.000000,,2013-01-26 13:00:00,
2013-01-26 05:12:00,36.0,35.0,29.98,NW,323,3.0,12.0,97,-99.99,,,-99.99,0.000000,,2013-01-26 13:12:00,
2013-01-26 05:40:00,35.0,34.0,29.96,NW,312,4.0,13.0,97,-99.99,,,-99.99,0.000000,,2013-01-26 13:40:00,
2013-01-26 05:52:00,35.0,34.0,29.98,NNW,331,2.0,11.0,97,-99.99,,,-99.99,0.000000,,2013-01-26 13:52:00,
2013-01-26 06:21:00,35.0,34.0,29.96,NW,312,4.0,13.0,97,-99.99,,,-99.99,0.000000,,2013-01-26 14:21:00,
2013-01-26 06:32:00,35.0,34.0,29.96,NW,312,4.0,13.0,97,-99.99,,,-99.99,0.000000,,2013-01-26 14:32:00,
2013-01-26 07:40:00,34.0,33.0,29.95,NW,312,3.0,12.0,93,-99.99,,,-99.99,7.000000,,2013-01-26 15:40:00,
2013-01-26 08:20:00,34.0,32.0,29.94,North,358,2.0,7.0,93,-99.99,,,-99.99,60.000000,,2013-01-26 16:20:00,
2013-01-26 08:22:00,34.0,33.0,29.95,NW,312,3.0,12.0,93,-99.99,,,-99.99,7.000000,,2013-01-26 16:22:00,
2013-01-26 08:32:00,34.0,33.0,29.95,NW,312,3.0,12.0,93,-99.99,,,-99.99,7.000000,,2013-01-26 16:32:00,
2013-01-26 09:00:00,34.0,32.0,29.93,NW,324,4.0,18.0,92,-99.99,,,-99.99,67.000000,,2013-01-26 17:00:00,
2013-01-26 09:03:00,34.0,32.0,29.94,North,358,2.0,7.0,93,-99.99,,,-99.99,60.000000,,2013-01-26 17:03:00,
2013-01-26 09:12:00,34.0,32.0,29.94,North,358,2.0,7.0,93,-99.99,,,-99.99,60.000000,,2013-01-26 17:12:00,
2013-01-26 09:40:00,34.0,32.0,29.93,North,3,3.0,9.0,91,-99.99,,,-99.99,119.000000,,2013-01-26 17:40:00,
2013-01-26 09:42:00,34.0,32.0,29.93,NW,324,4.0,18.0,92,-99.99,,,-99.99,67.000000,,2013-01-26 17:42:00,
2013-01-26 09:52:00,34.0,32.0,29.93,NW,324,4.0,18.0,92,-99.99,,,-99.99,67.000000,,2013-01-26 17:52:00,
2013-01-26 10:20:00,34.0,31.0,29.93,NW,309,6.0,15.0,89,-99.99,,,-99.99,114.000000,,2013-01-26 18:20:00,
2013-01-26 10:22:00,34.0,32.0,29.93,North,3,3.0,9.0,91,-99.99,,,-99.99,119.000000,,2013-01-26 18:22:00,
2013-01-26 10:32:00,34.0,32.0,29.93,North,3,3.0,9.0,91,-99.99,,,-99.99,119.000000,,2013-01-26 18:32:00,
2013-01-26 11:00:00,34.0,31.0,29.92,NW,323,5.0,20.0,90,-99.99,,,-99.99,126.000000,,2013-01-26 19:00:00,
2013-01-26 11:03:00,34.0,31.0,29.93,NW,309,6.0,15.0,89,-99.99,,,-99.99,114.000000,,2013-01-26 19:03:00,
2013-01-26 11:11:00,34.0,31.0,29.93,NW,309,6.0,15.0,89,-99.99,,,-99.99,114.000000,,2013-01-26 19:11:00,
2013-01-26 11:40:00,34.0,31.0,29.90,WNW,298,6.0,19.0,86,-99.99,,,-99.99,120.000000,,2013-01-26 19:40:00,
2013-01-26 11:42:00,34.0,31.0,29.92,NW,323,5.0,20.0,90,-99.99,,,-99.99,126.000000,,2013-01-26 19:42:00,
2013-01-26 11:52:00,34.0,31.0,29.92,NW,323,5.0,20.0,90,-99.99,,,-99.99,126.000000,,2013-01-26 19:52:00,
2013-01-26 12:20:00,35.0,31.0,29.88,NNW,335,4.0,16.0,84,-99.99,,,-99.99,204.000000,,2013-01-26 20:20:00,
2013-01-26 12:21:00,34.0,31.0,29.90,WNW,298,6.0,19.0,86,-99.99,,,-99.99,120.000000,,2013-01-26 20:21:00,
2013-01-26 12:32:00,34.0,31.0,29.90,WNW,298,6.0,19.0,86,-99.99,,,-99.99,120.000000,,2013-01-26 20:32:00,
2013-01-26 13:00:00,34.0,30.0,29.87,NW,314,7.0,34.0,85,-99.99,,,-99.99,302.000000,,2013-01-26 21:00:00,
2013-01-26 13:12:00,35.0,31.0,29.88,NNW,335,4.0,16.0,84,-99.99,,,-99.99,204.000000,,2013-01-26 21:12:00,
2013-01-26 13:40:00,34.0,29.0,29.86,NW,320,8.0,20.0,80,-99.99,,,-99.99,115.000000,,2013-01-26 21:40:00,
2013-01-26 13:42:00,34.0,30.0,29.87,NW,314,7.0,34.0,85,-99.99,,,-99.99,302.000000,,2013-01-26 21:42:00,
2013-01-26 13:51:00,34.0,30.0,29.87,NW,314,7.0,34.0,85,-99.99,,,-99.99,302.000000,,2013-01-26 21:51:00,
2013-01-26 14:20:00,34.0,28.0,29.85,NW,308,7.0,29.0,80,-99.99,,,-99.99,122.000000,,2013-01-26 22:20:00,
2013-01-26 14:21:00,34.0,29.0,29.86,NW,320,8.0,20.0,80,-99.99,,,-99.99,115.000000,,2013-01-26 22:21:00,
2013-01-26 14:31:00,34.0,29.0,29.86,NW,320,8.0,20.0,80,-99.99,,,-99.99,115.000000,,2013-01-26 22:31:00,
2013-01-26 15:00:00,33.0,28.0,29.84,NW,318,6.0,16.0,80,-99.99,,,-99.99,97.000000,,2013-01-26 23:00:00,
2013-01-26 15:01:00,34.0,28.0,29.85,NW,308,7.0,29.0,80,-99.99,,,-99.99,122.000000,,2013-01-26 23:01:00,
2013-01-26 15:11:00,34.0,28.0,29.85,NW,308,7.0,29.0,80,-99.99,,,-99.99,122.000000,,2013-01-26 23:11:00,
2013-01-26 15:40:00,32.0,28.0,29.84,NW,316,7.0,28.0,83,-99.99,,,-99.99,60.000000,,2013-01-26 23:40:00,
2013-01-26 15:41:00,33.0,28.0,29.84,NW,318,6.0,16.0,80,-99.99,,,-99.99,97.000000,,2013-01-26 23:41:00,
2013-01-26 15:52:00,33.0,28.0,29.84,NW,318,6.0,16.0,80,-99.99,,,-99.99,97.000000,,2013-01-26 23:52:00,
2013-01-26 16:20:00,32.0,27.0,29.84,NW,315,6.0,23.0,84,-99.99,,,-99.99,25.000000,,2013-01-27 00:20:00,
2013-01-26 16:21:00,32.0,28.0,29.84,NW,316,7.0,28.0,83,-99.99,,,-99.99,60.000000,,2013-01-27 00:21:00,
2013-01-26 16:32:00,32.0,28.0,29.84,NW,316,7.0,28.0,83,-99.99,,,-99.99,60.000000,,2013-01-27 00:32:00,
2013-01-26 17:00:00,30.0,27.0,29.84,NW,326,6.0,23.0,91,-99.99,,,-99.99,13.000000,,2013-01-27 01:00:00,
2013-01-26 17:11:00,32.0,27.0,29.84,NW,315,6.0,23.0,84,-99.99,,,-99.99,25.000000,,2013-01-27 01:11:00,
2013-01-26 17:32:00,30.0,27.0,29.84,NW,326,6.0,23.0,91,-99.99,,,-99.99,13.000000,,2013-01-27 01:32:00,
2013-01-26 17:40:00,29.0,26.0,29.84,NNW,337,5.0,12.0,89,-99.99,,,-99.99,0.000000,,2013-01-27 01:40:00,
2013-01-26 17:41:00,30.0,27.0,29.84,NW,326,6.0,23.0,91,-99.99,,,-99.99,13.000000,,2013-01-27 01:41:00,
2013-01-26 17:51:00,30.0,27.0,29.84,NW,326,6.0,23.0,91,-99.99,,,-99.99,13.000000,,2013-01-27 01:51:00,
2013-01-26 18:20:00,28.0,24.0,29.86,NW,324,5.0,23.0,86,-99.99,,,-99.99,0.000000,,2013-01-27 02:20:00,
2013-01-26 18:21:00,29.0,26.0,29.84,NNW,337,5.0,12.0,89,-99.99,,,-99.99,0.000000,,2013-01-27 02:21:00,
2013-01-26 18:31:00,29.0,26.0,29.84,NNW,337,5.0,12.0,89,-99.99,,,-99.99,0.000000,,2013-01-27 02:31:00,
2013-01-26 19:00:00,28.0,24.0,29.86,North,2,2.0,7.0,86,-99.99,,,-99.99,0.000000,,2013-01-27 03:00:00,
2013-01-26 19:01:00,28.0,24.0,29.86,NW,324,5.0,23.0,86,-99.99,,,-99.99,0.000000,,2013-01-27 03:01:00,
2013-01-26 19:11:00,28.0,24.0,29.86,NW,324,5.0,23.0,86,-99.99,,,-99.99,0.000000,,2013-01-27 03:11:00,
2013-01-26 19:40:00,27.0,23.0,29.85,NNW,345,5.0,16.0,85,-99.99,,,-99.99,0.000000,,2013-01-27 03:40:00,
2013-01-26 19:42:00,28.0,24.0,29.86,North,2,2.0,7.0,86,-99.99,,,-99.99,0.000000,,2013-01-27 03:42:00,
2013-01-26 19:51:00,28.0,24.0,29.86,North,2,2.0,7.0,86,-99.99,,,-99.99,0.000000,,2013-01-27 03:51:00,
2013-01-26 20:20:00,27.0,23.0,29.85,NNW,340,5.0,15.0,86,-99.99,,,-99.99,0.000000,,2013-01-27 04:20:00,
2013-01-26 20:31:00,27.0,23.0,29.85,NNW,345,5.0,16.0,85,-99.99,,,-99.99,0.000000,,2013-01-27 04:31:00,
2013-01-26 21:00:00,26.0,23.0,29.84,NNE,12,2.0,8.0,87,-99.99,,,-99.99,0.000000,,2013-01-27 05:00:00,
2013-01-26 21:03:00,27.0,23.0,29.85,NNW,340,5.0,15.0,86,-99.99,,,-99.99,0.000000,,2013-01-27 05:03:00,
2013-01-26 21:12:00,27.0,23.0,29.85,NNW,340,5.0,15.0,86,-99.99,,,-99.99,0.000000,,2013-01-27 05:12:00,
2013-01-26 21:40:00,26.0,24.0,29.84,North,2,2.0,10.0,90,-99.99,,,-99.99,0.000000,,2013-01-27 05:40:00,
2013-01-26 21:41:00,26.0,23.0,29.84,NNE,12,2.0,8.0,87,-99.99,,,-99.99,0.000000,,2013-01-27 05:41:00,
2013-01-26 21:52:00,26.0,23.0,29.84,NNE,12,2.0,8.0,87,-99.99,,,-99.99,0.000000,,2013-01-27 05:52:00,
2013-01-26 22:20:00,26.0,23.0,29.84,North,354,4.0,15.0,90,-99.99,,,-99.99,0.000000,,2013-01-27 06:20:00,
2013-01-26 22:21:00,26.0,24.0,29.84,North,2,2.0,10.0,90,-99.99,,,-99.99,0.000000,,2013-01-27 06:21:00,
2013-01-26 22:31:00,26.0,24.0,29.84,North,2,2.0,10.0,90,-99.99,,,-99.99,0.000000,,2013-01-27 06:31:00,
2013-01-26 23:00:00,25.0,22.0,29.84,NNE,12,3.0,10.0,88,-99.99,,,-99.99,0.000000,,2013-01-27 07:00:00,
2013-01-26 23:13:00,26.0,23.0,29.84,North,354,4.0,15.0,90,-99.99,,,-99.99,0.000000,,2013-01-27 07:13:00,
2013-01-26 23:40:00,25.0,22.0,29.84,NW,322,6.0,35.0,89,-99.99,,,-99.99,0.000000,,2013-01-27 07:40:00,
2013-01-26 23:51:00,25.0,22.0,29.84,NNE,12,3.0,10.0,88,-99.99,,,-99.99,0.000000,,2013-01-27 07:51:00,